sensor_id;sensor_type;location;lat;lon;timestamp;temperature;humidity
49224;DHT22;35050;51.316;5.994;2024-03-02T00:00:43;9.40;99.90
49224;DHT22;35050;51.316;5.994;2024-03-02T00:03:12;9.40;99.90
49224;DHT22;35050;51.316;5.994;2024-03-02T00:05:39;9.40;99.90
49224;DHT22;35050;51.316;5.994;2024-03-02T00:08:07;9.40;99.90
49224;DHT22;35050;51.316;5.994;2024-03-02T00:10:39;9.40;99.90
49224;DHT22;35050;51.316;5.994;2024-03-02T00:13:09;9.40;99.90
49224;DHT22;35050;51.316;5.994;2024-03-02T00:18:46;9.40;99.90
49224;DHT22;35050;51.316;5.994;2024-03-02T00:21:06;9.50;99.90
49224;DHT22;35050;51.316;5.994;2024-03-02T00:23:34;9.50;99.90
49224;DHT22;35050;51.316;5.994;2024-03-02T00:26:01;9.50;99.90
49224;DHT22;35050;51.316;5.994;2024-03-02T00:28:30;9.50;99.90
49224;DHT22;35050;51.316;5.994;2024-03-02T00:31:09;9.60;99.90
49224;DHT22;35050;51.316;5.994;2024-03-02T00:33:46;9.50;99.90
49224;DHT22;35050;51.316;5.994;2024-03-02T00:36:16;9.60;99.90
49224;DHT22;35050;51.316;5.994;2024-03-02T00:38:52;9.70;99.90
49224;DHT22;35050;51.316;5.994;2024-03-02T00:41:22;9.70;99.90
49224;DHT22;35050;51.316;5.994;2024-03-02T00:46:22;9.70;99.90
49224;DHT22;35050;51.316;5.994;2024-03-02T00:48:58;9.90;99.90
49224;DHT22;35050;51.316;5.994;2024-03-02T00:51:25;9.90;99.90
49224;DHT22;35050;51.316;5.994;2024-03-02T00:53:55;9.90;99.90
49224;DHT22;35050;51.316;5.994;2024-03-02T00:56:23;9.90;99.90
49224;DHT22;35050;51.316;5.994;2024-03-02T00:58:49;10.00;99.90
49224;DHT22;35050;51.316;5.994;2024-03-02T01:01:15;10.00;99.90
49224;DHT22;35050;51.316;5.994;2024-03-02T01:03:42;10.00;99.90
49224;DHT22;35050;51.316;5.994;2024-03-02T01:06:07;10.10;99.90
49224;DHT22;35050;51.316;5.994;2024-03-02T01:08:37;10.10;99.90
49224;DHT22;35050;51.316;5.994;2024-03-02T01:11:03;10.10;99.90
49224;DHT22;35050;51.316;5.994;2024-03-02T01:13:30;10.10;99.90
49224;DHT22;35050;51.316;5.994;2024-03-02T01:15:56;10.10;99.90
49224;DHT22;35050;51.316;5.994;2024-03-02T01:18:22;9.90;99.90
49224;DHT22;35050;51.316;5.994;2024-03-02T01:20:48;9.70;99.90
49224;DHT22;35050;51.316;5.994;2024-03-02T01:23:13;9.60;99.90
49224;DHT22;35050;51.316;5.994;2024-03-02T01:25:39;9.50;99.90
49224;DHT22;35050;51.316;5.994;2024-03-02T01:28:05;9.40;99.90
49224;DHT22;35050;51.316;5.994;2024-03-02T01:30:31;9.30;99.90
49224;DHT22;35050;51.316;5.994;2024-03-02T01:32:57;9.20;99.90
49224;DHT22;35050;51.316;5.994;2024-03-02T01:35:24;9.10;99.90
49224;DHT22;35050;51.316;5.994;2024-03-02T01:37:50;9.10;99.90
49224;DHT22;35050;51.316;5.994;2024-03-02T01:40:16;9.10;99.90
49224;DHT22;35050;51.316;5.994;2024-03-02T01:42:43;9.10;99.90
49224;DHT22;35050;51.316;5.994;2024-03-02T01:45:09;8.90;99.90
49224;DHT22;35050;51.316;5.994;2024-03-02T01:47:35;8.90;99.90
49224;DHT22;35050;51.316;5.994;2024-03-02T01:50:01;8.90;99.90
49224;DHT22;35050;51.316;5.994;2024-03-02T01:52:27;8.90;99.90
49224;DHT22;35050;51.316;5.994;2024-03-02T01:54:53;8.80;99.90
49224;DHT22;35050;51.316;5.994;2024-03-02T01:57:22;8.80;99.90
49224;DHT22;35050;51.316;5.994;2024-03-02T01:59:48;8.80;99.90
49224;DHT22;35050;51.316;5.994;2024-03-02T02:02:14;8.80;99.90
49224;DHT22;35050;51.316;5.994;2024-03-02T02:04:40;8.70;99.90
49224;DHT22;35050;51.316;5.994;2024-03-02T02:07:06;8.70;99.90
49224;DHT22;35050;51.316;5.994;2024-03-02T02:09:32;8.70;99.90
49224;DHT22;35050;51.316;5.994;2024-03-02T02:11:58;8.70;99.90
49224;DHT22;35050;51.316;5.994;2024-03-02T02:14:24;8.70;99.90
49224;DHT22;35050;51.316;5.994;2024-03-02T02:16:49;8.60;99.90
49224;DHT22;35050;51.316;5.994;2024-03-02T02:19:17;8.60;99.90
49224;DHT22;35050;51.316;5.994;2024-03-02T02:21:43;8.60;99.90
49224;DHT22;35050;51.316;5.994;2024-03-02T02:24:11;8.70;99.90
49224;DHT22;35050;51.316;5.994;2024-03-02T02:26:38;8.60;99.90
49224;DHT22;35050;51.316;5.994;2024-03-02T02:29:04;8.70;99.90
49224;DHT22;35050;51.316;5.994;2024-03-02T02:31:40;8.60;99.90
49224;DHT22;35050;51.316;5.994;2024-03-02T02:34:06;8.70;99.90
49224;DHT22;35050;51.316;5.994;2024-03-02T02:36:37;8.60;99.90
49224;DHT22;35050;51.316;5.994;2024-03-02T02:39:04;8.60;99.90
49224;DHT22;35050;51.316;5.994;2024-03-02T02:41:35;8.60;99.90
49224;DHT22;35050;51.316;5.994;2024-03-02T02:44:00;8.60;99.90
49224;DHT22;35050;51.316;5.994;2024-03-02T02:46:26;8.60;99.90
49224;DHT22;35050;51.316;5.994;2024-03-02T02:48:51;8.60;99.90
49224;DHT22;35050;51.316;5.994;2024-03-02T02:51:18;8.60;99.90
49224;DHT22;35050;51.316;5.994;2024-03-02T02:53:44;8.60;99.90
49224;DHT22;35050;51.316;5.994;2024-03-02T02:56:11;8.60;99.90
49224;DHT22;35050;51.316;5.994;2024-03-02T02:58:36;8.60;99.90
49224;DHT22;35050;51.316;5.994;2024-03-02T03:01:02;8.50;99.90
49224;DHT22;35050;51.316;5.994;2024-03-02T03:03:29;8.50;99.90
49224;DHT22;35050;51.316;5.994;2024-03-02T03:05:55;8.50;99.90
49224;DHT22;35050;51.316;5.994;2024-03-02T03:08:21;8.50;99.90
49224;DHT22;35050;51.316;5.994;2024-03-02T03:10:48;8.40;99.90
49224;DHT22;35050;51.316;5.994;2024-03-02T03:13:15;8.30;99.90
49224;DHT22;35050;51.316;5.994;2024-03-02T03:15:40;8.40;99.90
49224;DHT22;35050;51.316;5.994;2024-03-02T03:18:06;8.30;99.90
49224;DHT22;35050;51.316;5.994;2024-03-02T03:20:33;8.20;99.90
49224;DHT22;35050;51.316;5.994;2024-03-02T03:22:59;8.30;99.90
49224;DHT22;35050;51.316;5.994;2024-03-02T03:25:29;8.30;99.90
49224;DHT22;35050;51.316;5.994;2024-03-02T03:27:54;8.20;99.90
49224;DHT22;35050;51.316;5.994;2024-03-02T03:30:24;8.30;99.90
49224;DHT22;35050;51.316;5.994;2024-03-02T03:32:58;8.30;99.90
49224;DHT22;35050;51.316;5.994;2024-03-02T03:35:24;8.30;99.90
49224;DHT22;35050;51.316;5.994;2024-03-02T03:37:52;8.20;99.90
49224;DHT22;35050;51.316;5.994;2024-03-02T03:40:17;8.30;99.90
49224;DHT22;35050;51.316;5.994;2024-03-02T03:42:47;8.20;99.90
49224;DHT22;35050;51.316;5.994;2024-03-02T03:45:14;8.20;99.90
49224;DHT22;35050;51.316;5.994;2024-03-02T03:47:40;8.30;99.90
49224;DHT22;35050;51.316;5.994;2024-03-02T03:50:06;8.20;99.90
49224;DHT22;35050;51.316;5.994;2024-03-02T03:52:35;8.30;99.90
49224;DHT22;35050;51.316;5.994;2024-03-02T03:55:01;8.30;99.90
49224;DHT22;35050;51.316;5.994;2024-03-02T03:57:27;8.30;99.90
49224;DHT22;35050;51.316;5.994;2024-03-02T03:59:53;8.30;99.90
49224;DHT22;35050;51.316;5.994;2024-03-02T04:02:19;8.30;99.90
49224;DHT22;35050;51.316;5.994;2024-03-02T04:04:44;8.30;99.90
49224;DHT22;35050;51.316;5.994;2024-03-02T04:07:10;8.20;99.90
49224;DHT22;35050;51.316;5.994;2024-03-02T04:09:36;8.30;99.90
49224;DHT22;35050;51.316;5.994;2024-03-02T04:12:01;8.30;99.90
49224;DHT22;35050;51.316;5.994;2024-03-02T04:14:27;8.30;99.90
49224;DHT22;35050;51.316;5.994;2024-03-02T04:16:53;8.30;99.90
49224;DHT22;35050;51.316;5.994;2024-03-02T04:19:18;8.30;99.90
49224;DHT22;35050;51.316;5.994;2024-03-02T04:21:44;8.30;99.90
49224;DHT22;35050;51.316;5.994;2024-03-02T04:24:09;8.30;99.90
49224;DHT22;35050;51.316;5.994;2024-03-02T04:26:35;8.20;99.90
49224;DHT22;35050;51.316;5.994;2024-03-02T04:29:01;8.30;99.90
49224;DHT22;35050;51.316;5.994;2024-03-02T04:31:29;8.30;99.90
49224;DHT22;35050;51.316;5.994;2024-03-02T04:33:55;8.30;99.90
49224;DHT22;35050;51.316;5.994;2024-03-02T04:36:21;8.40;99.90
49224;DHT22;35050;51.316;5.994;2024-03-02T04:38:49;8.50;99.90
49224;DHT22;35050;51.316;5.994;2024-03-02T04:41:35;8.40;99.90
49224;DHT22;35050;51.316;5.994;2024-03-02T04:44:00;8.30;99.90
49224;DHT22;35050;51.316;5.994;2024-03-02T04:46:26;8.30;99.90
49224;DHT22;35050;51.316;5.994;2024-03-02T04:48:52;8.30;99.90
49224;DHT22;35050;51.316;5.994;2024-03-02T04:51:21;8.30;99.90
49224;DHT22;35050;51.316;5.994;2024-03-02T04:53:46;8.20;99.90
49224;DHT22;35050;51.316;5.994;2024-03-02T04:56:15;8.30;99.90
49224;DHT22;35050;51.316;5.994;2024-03-02T04:59:02;8.20;99.90
49224;DHT22;35050;51.316;5.994;2024-03-02T05:01:27;8.20;99.90
49224;DHT22;35050;51.316;5.994;2024-03-02T05:03:53;8.20;99.90
49224;DHT22;35050;51.316;5.994;2024-03-02T05:06:19;8.20;99.90
49224;DHT22;35050;51.316;5.994;2024-03-02T05:08:48;8.20;99.90
49224;DHT22;35050;51.316;5.994;2024-03-02T05:11:15;8.30;99.90
49224;DHT22;35050;51.316;5.994;2024-03-02T05:14:10;8.20;99.90
49224;DHT22;35050;51.316;5.994;2024-03-02T05:16:36;8.20;99.90
49224;DHT22;35050;51.316;5.994;2024-03-02T05:19:06;8.30;99.90
49224;DHT22;35050;51.316;5.994;2024-03-02T05:21:32;8.30;99.90
49224;DHT22;35050;51.316;5.994;2024-03-02T05:23:59;8.20;99.90
49224;DHT22;35050;51.316;5.994;2024-03-02T05:26:24;8.20;99.90
49224;DHT22;35050;51.316;5.994;2024-03-02T05:28:50;8.30;99.90
49224;DHT22;35050;51.316;5.994;2024-03-02T05:31:16;8.30;99.90
49224;DHT22;35050;51.316;5.994;2024-03-02T05:33:42;8.30;99.90
49224;DHT22;35050;51.316;5.994;2024-03-02T05:36:08;8.30;99.90
49224;DHT22;35050;51.316;5.994;2024-03-02T05:38:37;8.20;99.90
49224;DHT22;35050;51.316;5.994;2024-03-02T05:41:02;8.30;99.90
49224;DHT22;35050;51.316;5.994;2024-03-02T05:43:28;8.30;99.90
49224;DHT22;35050;51.316;5.994;2024-03-02T05:45:54;8.20;99.90
49224;DHT22;35050;51.316;5.994;2024-03-02T05:48:20;8.30;99.90
49224;DHT22;35050;51.316;5.994;2024-03-02T05:50:46;8.30;99.90
49224;DHT22;35050;51.316;5.994;2024-03-02T05:53:11;8.20;99.90
49224;DHT22;35050;51.316;5.994;2024-03-02T05:55:37;8.20;99.90
49224;DHT22;35050;51.316;5.994;2024-03-02T05:58:02;8.20;99.90
49224;DHT22;35050;51.316;5.994;2024-03-02T06:00:48;8.30;99.90
49224;DHT22;35050;51.316;5.994;2024-03-02T06:03:13;8.30;99.90
49224;DHT22;35050;51.316;5.994;2024-03-02T06:05:39;8.20;99.90
49224;DHT22;35050;51.316;5.994;2024-03-02T06:08:06;8.30;99.90
49224;DHT22;35050;51.316;5.994;2024-03-02T06:10:33;8.20;99.90
49224;DHT22;35050;51.316;5.994;2024-03-02T06:13:01;8.10;99.90
49224;DHT22;35050;51.316;5.994;2024-03-02T06:15:44;8.10;99.90
49224;DHT22;35050;51.316;5.994;2024-03-02T06:18:10;8.10;99.90
49224;DHT22;35050;51.316;5.994;2024-03-02T06:20:36;8.10;99.90
49224;DHT22;35050;51.316;5.994;2024-03-02T06:23:04;8.10;99.90
49224;DHT22;35050;51.316;5.994;2024-03-02T06:25:29;8.20;99.90
49224;DHT22;35050;51.316;5.994;2024-03-02T06:27:55;8.10;99.90
49224;DHT22;35050;51.316;5.994;2024-03-02T06:30:23;8.20;99.90
49224;DHT22;35050;51.316;5.994;2024-03-02T06:32:49;8.10;99.90
49224;DHT22;35050;51.316;5.994;2024-03-02T06:35:14;8.10;99.90
49224;DHT22;35050;51.316;5.994;2024-03-02T06:37:46;8.20;99.90
49224;DHT22;35050;51.316;5.994;2024-03-02T06:40:12;8.20;99.90
49224;DHT22;35050;51.316;5.994;2024-03-02T06:42:37;8.10;99.90
49224;DHT22;35050;51.316;5.994;2024-03-02T06:45:03;8.10;99.90
49224;DHT22;35050;51.316;5.994;2024-03-02T06:47:29;8.00;99.90
49224;DHT22;35050;51.316;5.994;2024-03-02T06:49:55;8.10;99.90
49224;DHT22;35050;51.316;5.994;2024-03-02T06:52:22;8.00;99.90
49224;DHT22;35050;51.316;5.994;2024-03-02T06:54:48;8.00;99.90
49224;DHT22;35050;51.316;5.994;2024-03-02T06:57:16;8.00;99.90
49224;DHT22;35050;51.316;5.994;2024-03-02T06:59:42;8.00;99.90
49224;DHT22;35050;51.316;5.994;2024-03-02T07:02:10;7.90;99.90
49224;DHT22;35050;51.316;5.994;2024-03-02T07:04:39;8.00;99.90
49224;DHT22;35050;51.316;5.994;2024-03-02T07:07:07;8.00;99.90
49224;DHT22;35050;51.316;5.994;2024-03-02T07:09:33;7.90;99.90
49224;DHT22;35050;51.316;5.994;2024-03-02T07:11:58;8.00;99.90
49224;DHT22;35050;51.316;5.994;2024-03-02T07:14:24;8.00;99.90
49224;DHT22;35050;51.316;5.994;2024-03-02T07:17:09;8.00;99.90
49224;DHT22;35050;51.316;5.994;2024-03-02T07:19:38;8.00;99.90
49224;DHT22;35050;51.316;5.994;2024-03-02T07:22:07;8.00;99.90
49224;DHT22;35050;51.316;5.994;2024-03-02T07:24:42;8.00;99.90
49224;DHT22;35050;51.316;5.994;2024-03-02T07:27:08;8.10;99.90
49224;DHT22;35050;51.316;5.994;2024-03-02T07:29:34;8.10;99.90
49224;DHT22;35050;51.316;5.994;2024-03-02T07:32:00;8.20;99.90
49224;DHT22;35050;51.316;5.994;2024-03-02T07:34:25;8.30;99.90
49224;DHT22;35050;51.316;5.994;2024-03-02T07:36:54;8.40;99.90
49224;DHT22;35050;51.316;5.994;2024-03-02T07:39:20;8.40;99.90
49224;DHT22;35050;51.316;5.994;2024-03-02T07:41:49;8.50;99.90
49224;DHT22;35050;51.316;5.994;2024-03-02T07:44:18;8.50;99.90
49224;DHT22;35050;51.316;5.994;2024-03-02T07:46:45;8.70;99.90
49224;DHT22;35050;51.316;5.994;2024-03-02T07:49:18;8.70;99.90
49224;DHT22;35050;51.316;5.994;2024-03-02T07:51:44;8.80;99.90
49224;DHT22;35050;51.316;5.994;2024-03-02T07:54:13;8.90;99.90
49224;DHT22;35050;51.316;5.994;2024-03-02T07:56:43;9.00;99.90
49224;DHT22;35050;51.316;5.994;2024-03-02T07:59:18;9.10;99.90
49224;DHT22;35050;51.316;5.994;2024-03-02T08:01:43;9.10;99.90
49224;DHT22;35050;51.316;5.994;2024-03-02T08:04:09;9.20;99.90
49224;DHT22;35050;51.316;5.994;2024-03-02T08:06:35;9.20;99.90
49224;DHT22;35050;51.316;5.994;2024-03-02T08:09:01;9.20;99.90
49224;DHT22;35050;51.316;5.994;2024-03-02T08:11:27;9.30;99.90
49224;DHT22;35050;51.316;5.994;2024-03-02T08:13:53;9.30;99.90
49224;DHT22;35050;51.316;5.994;2024-03-02T08:16:21;9.30;99.90
49224;DHT22;35050;51.316;5.994;2024-03-02T08:18:50;9.30;99.90
49224;DHT22;35050;51.316;5.994;2024-03-02T08:21:15;9.40;99.90
49224;DHT22;35050;51.316;5.994;2024-03-02T08:23:45;9.40;99.90
49224;DHT22;35050;51.316;5.994;2024-03-02T08:26:11;9.40;99.90
49224;DHT22;35050;51.316;5.994;2024-03-02T08:28:37;9.50;99.90
49224;DHT22;35050;51.316;5.994;2024-03-02T08:31:06;9.60;99.90
49224;DHT22;35050;51.316;5.994;2024-03-02T08:33:32;9.60;99.90
49224;DHT22;35050;51.316;5.994;2024-03-02T08:35:58;9.60;99.90
49224;DHT22;35050;51.316;5.994;2024-03-02T08:38:24;9.60;99.90
49224;DHT22;35050;51.316;5.994;2024-03-02T08:40:52;9.60;99.90
49224;DHT22;35050;51.316;5.994;2024-03-02T08:43:21;9.60;99.90
49224;DHT22;35050;51.316;5.994;2024-03-02T08:45:48;9.70;99.90
49224;DHT22;35050;51.316;5.994;2024-03-02T08:48:16;9.80;99.90
49224;DHT22;35050;51.316;5.994;2024-03-02T08:50:41;9.80;99.90
49224;DHT22;35050;51.316;5.994;2024-03-02T08:53:07;9.80;99.90
49224;DHT22;35050;51.316;5.994;2024-03-02T08:55:33;9.80;99.90
49224;DHT22;35050;51.316;5.994;2024-03-02T08:57:58;9.70;99.90
49224;DHT22;35050;51.316;5.994;2024-03-02T09:00:27;9.70;99.90
49224;DHT22;35050;51.316;5.994;2024-03-02T09:02:53;9.80;99.90
49224;DHT22;35050;51.316;5.994;2024-03-02T09:05:18;9.90;99.90
49224;DHT22;35050;51.316;5.994;2024-03-02T09:07:47;9.90;99.90
49224;DHT22;35050;51.316;5.994;2024-03-02T09:10:13;10.00;99.90
49224;DHT22;35050;51.316;5.994;2024-03-02T09:12:39;10.10;99.90
49224;DHT22;35050;51.316;5.994;2024-03-02T09:15:05;10.30;99.90
49224;DHT22;35050;51.316;5.994;2024-03-02T09:17:34;10.30;99.90
49224;DHT22;35050;51.316;5.994;2024-03-02T09:19:59;10.50;99.90
49224;DHT22;35050;51.316;5.994;2024-03-02T09:22:25;10.40;99.90
49224;DHT22;35050;51.316;5.994;2024-03-02T09:24:51;10.40;99.90
49224;DHT22;35050;51.316;5.994;2024-03-02T09:27:16;10.40;99.90
49224;DHT22;35050;51.316;5.994;2024-03-02T09:29:44;10.60;99.90
49224;DHT22;35050;51.316;5.994;2024-03-02T09:32:13;10.70;99.90
49224;DHT22;35050;51.316;5.994;2024-03-02T09:34:39;11.00;99.90
49224;DHT22;35050;51.316;5.994;2024-03-02T09:37:06;10.80;99.90
49224;DHT22;35050;51.316;5.994;2024-03-02T09:39:31;10.90;99.90
49224;DHT22;35050;51.316;5.994;2024-03-02T09:42:02;10.80;99.90
49224;DHT22;35050;51.316;5.994;2024-03-02T09:44:29;10.70;99.90
49224;DHT22;35050;51.316;5.994;2024-03-02T09:46:55;10.70;99.90
49224;DHT22;35050;51.316;5.994;2024-03-02T09:49:22;10.70;99.90
49224;DHT22;35050;51.316;5.994;2024-03-02T09:51:49;10.80;99.90
49224;DHT22;35050;51.316;5.994;2024-03-02T09:54:20;10.90;99.90
49224;DHT22;35050;51.316;5.994;2024-03-02T09:56:46;11.20;99.90
49224;DHT22;35050;51.316;5.994;2024-03-02T09:59:12;11.40;99.90
49224;DHT22;35050;51.316;5.994;2024-03-02T10:01:55;11.40;99.90
49224;DHT22;35050;51.316;5.994;2024-03-02T10:04:25;11.70;99.90
49224;DHT22;35050;51.316;5.994;2024-03-02T10:06:51;11.80;99.90
49224;DHT22;35050;51.316;5.994;2024-03-02T10:09:27;12.00;99.90
49224;DHT22;35050;51.316;5.994;2024-03-02T10:12:04;11.90;99.90
49224;DHT22;35050;51.316;5.994;2024-03-02T10:14:30;12.00;99.90
49224;DHT22;35050;51.316;5.994;2024-03-02T10:17:02;12.20;99.90
49224;DHT22;35050;51.316;5.994;2024-03-02T10:19:29;12.30;99.90
49224;DHT22;35050;51.316;5.994;2024-03-02T10:21:58;13.10;99.90
49224;DHT22;35050;51.316;5.994;2024-03-02T10:24:25;12.90;99.90
49224;DHT22;35050;51.316;5.994;2024-03-02T10:26:54;13.00;99.90
49224;DHT22;35050;51.316;5.994;2024-03-02T10:29:21;13.50;99.90
49224;DHT22;35050;51.316;5.994;2024-03-02T10:31:47;13.60;99.90
49224;DHT22;35050;51.316;5.994;2024-03-02T10:34:13;14.00;99.90
49224;DHT22;35050;51.316;5.994;2024-03-02T10:36:43;14.20;99.90
49224;DHT22;35050;51.316;5.994;2024-03-02T10:39:12;14.30;99.90
49224;DHT22;35050;51.316;5.994;2024-03-02T10:41:38;14.20;99.90
49224;DHT22;35050;51.316;5.994;2024-03-02T10:44:07;14.30;99.90
49224;DHT22;35050;51.316;5.994;2024-03-02T10:46:36;14.50;99.90
49224;DHT22;35050;51.316;5.994;2024-03-02T10:49:03;15.20;99.90
49224;DHT22;35050;51.316;5.994;2024-03-02T10:51:31;15.50;99.90
49224;DHT22;35050;51.316;5.994;2024-03-02T10:54:03;14.80;99.90
49224;DHT22;35050;51.316;5.994;2024-03-02T10:56:44;15.10;99.90
49224;DHT22;35050;51.316;5.994;2024-03-02T11:01:47;15.00;99.90
49224;DHT22;35050;51.316;5.994;2024-03-02T11:04:13;14.20;99.90
49224;DHT22;35050;51.316;5.994;2024-03-02T11:06:50;14.30;99.90
49224;DHT22;35050;51.316;5.994;2024-03-02T11:09:19;14.90;99.90
49224;DHT22;35050;51.316;5.994;2024-03-02T11:11:53;15.20;99.90
49224;DHT22;35050;51.316;5.994;2024-03-02T11:14:24;15.30;99.90
49224;DHT22;35050;51.316;5.994;2024-03-02T11:16:54;15.00;99.90
49224;DHT22;35050;51.316;5.994;2024-03-02T11:19:20;15.20;99.90
49224;DHT22;35050;51.316;5.994;2024-03-02T11:21:46;14.80;99.50
49224;DHT22;35050;51.316;5.994;2024-03-02T11:26:53;15.40;99.20
49224;DHT22;35050;51.316;5.994;2024-03-02T11:32:16;15.50;99.50
49224;DHT22;35050;51.316;5.994;2024-03-02T11:34:43;15.70;98.30
49224;DHT22;35050;51.316;5.994;2024-03-02T11:37:11;16.20;97.40
49224;DHT22;35050;51.316;5.994;2024-03-02T11:39:38;16.80;97.20
49224;DHT22;35050;51.316;5.994;2024-03-02T11:42:06;15.60;97.00
49224;DHT22;35050;51.316;5.994;2024-03-02T11:44:34;16.00;97.50
49224;DHT22;35050;51.316;5.994;2024-03-02T11:47:01;16.20;97.10
49224;DHT22;35050;51.316;5.994;2024-03-02T11:52:12;16.30;97.10
49224;DHT22;35050;51.316;5.994;2024-03-02T11:54:40;16.40;96.10
49224;DHT22;35050;51.316;5.994;2024-03-02T11:57:09;15.80;96.70
49224;DHT22;35050;51.316;5.994;2024-03-02T11:59:35;16.10;96.50
49224;DHT22;35050;51.316;5.994;2024-03-02T12:02:02;16.10;96.10
49224;DHT22;35050;51.316;5.994;2024-03-02T12:04:29;15.70;96.00
49224;DHT22;35050;51.316;5.994;2024-03-02T12:06:56;15.70;96.40
49224;DHT22;35050;51.316;5.994;2024-03-02T12:09:22;16.30;96.30
49224;DHT22;35050;51.316;5.994;2024-03-02T12:12:01;17.00;95.50
49224;DHT22;35050;51.316;5.994;2024-03-02T12:14:27;16.30;95.70
49224;DHT22;35050;51.316;5.994;2024-03-02T12:16:54;15.70;95.60
49224;DHT22;35050;51.316;5.994;2024-03-02T12:19:21;15.80;96.00
49224;DHT22;35050;51.316;5.994;2024-03-02T12:21:47;15.50;96.00
49224;DHT22;35050;51.316;5.994;2024-03-02T12:24:12;15.30;96.70
49224;DHT22;35050;51.316;5.994;2024-03-02T12:26:38;15.60;98.30
49224;DHT22;35050;51.316;5.994;2024-03-02T12:29:04;16.10;96.90
49224;DHT22;35050;51.316;5.994;2024-03-02T12:31:30;15.90;96.30
49224;DHT22;35050;51.316;5.994;2024-03-02T12:33:56;15.50;95.90
49224;DHT22;35050;51.316;5.994;2024-03-02T12:36:22;15.60;96.20
49224;DHT22;35050;51.316;5.994;2024-03-02T12:38:48;15.40;96.80
49224;DHT22;35050;51.316;5.994;2024-03-02T12:41:16;15.60;96.40
49224;DHT22;35050;51.316;5.994;2024-03-02T12:43:47;15.80;97.10
49224;DHT22;35050;51.316;5.994;2024-03-02T12:46:16;15.90;96.90
49224;DHT22;35050;51.316;5.994;2024-03-02T12:48:41;15.60;96.90
49224;DHT22;35050;51.316;5.994;2024-03-02T12:51:07;15.60;97.20
49224;DHT22;35050;51.316;5.994;2024-03-02T12:53:33;15.20;97.00
49224;DHT22;35050;51.316;5.994;2024-03-02T12:55:59;14.90;96.90
49224;DHT22;35050;51.316;5.994;2024-03-02T12:58:24;15.10;96.80
49224;DHT22;35050;51.316;5.994;2024-03-02T13:01:05;15.30;97.50
49224;DHT22;35050;51.316;5.994;2024-03-02T13:03:31;15.40;97.70
49224;DHT22;35050;51.316;5.994;2024-03-02T13:06:00;15.40;97.00
49224;DHT22;35050;51.316;5.994;2024-03-02T13:08:25;15.50;96.50
49224;DHT22;35050;51.316;5.994;2024-03-02T13:10:51;16.10;96.90
49224;DHT22;35050;51.316;5.994;2024-03-02T13:13:17;16.60;97.10
49224;DHT22;35050;51.316;5.994;2024-03-02T13:15:43;16.90;95.50
49224;DHT22;35050;51.316;5.994;2024-03-02T13:18:09;17.00;95.70
49224;DHT22;35050;51.316;5.994;2024-03-02T13:20:35;17.10;95.60
49224;DHT22;35050;51.316;5.994;2024-03-02T13:23:01;17.40;95.50
49224;DHT22;35050;51.316;5.994;2024-03-02T13:25:27;17.30;95.00
49224;DHT22;35050;51.316;5.994;2024-03-02T13:27:55;17.40;95.00
49224;DHT22;35050;51.316;5.994;2024-03-02T13:30:21;17.60;94.60
49224;DHT22;35050;51.316;5.994;2024-03-02T13:32:47;18.20;94.80
49224;DHT22;35050;51.316;5.994;2024-03-02T13:35:14;18.00;94.20
49224;DHT22;35050;51.316;5.994;2024-03-02T13:37:40;17.80;94.60
49224;DHT22;35050;51.316;5.994;2024-03-02T13:40:06;17.40;93.90
49224;DHT22;35050;51.316;5.994;2024-03-02T13:42:46;17.60;94.70
49224;DHT22;35050;51.316;5.994;2024-03-02T13:45:15;17.20;95.30
49224;DHT22;35050;51.316;5.994;2024-03-02T13:47:41;17.00;95.30
49224;DHT22;35050;51.316;5.994;2024-03-02T13:50:07;16.80;95.50
49224;DHT22;35050;51.316;5.994;2024-03-02T13:52:33;15.90;96.00
49224;DHT22;35050;51.316;5.994;2024-03-02T13:55:01;16.10;96.30
49224;DHT22;35050;51.316;5.994;2024-03-02T13:57:30;15.90;96.50
49224;DHT22;35050;51.316;5.994;2024-03-02T13:59:56;15.70;96.30
49224;DHT22;35050;51.316;5.994;2024-03-02T14:02:21;15.50;96.60
49224;DHT22;35050;51.316;5.994;2024-03-02T14:04:48;15.50;96.60
49224;DHT22;35050;51.316;5.994;2024-03-02T14:07:15;15.50;97.40
49224;DHT22;35050;51.316;5.994;2024-03-02T14:09:41;15.70;97.20
49224;DHT22;35050;51.316;5.994;2024-03-02T14:12:07;15.80;96.80
49224;DHT22;35050;51.316;5.994;2024-03-02T14:14:32;16.00;96.90
49224;DHT22;35050;51.316;5.994;2024-03-02T14:17:00;15.90;96.50
49224;DHT22;35050;51.316;5.994;2024-03-02T14:19:31;16.30;97.10
49224;DHT22;35050;51.316;5.994;2024-03-02T14:21:58;16.40;96.90
49224;DHT22;35050;51.316;5.994;2024-03-02T14:24:23;16.50;96.60
49224;DHT22;35050;51.316;5.994;2024-03-02T14:26:51;16.60;96.60
49224;DHT22;35050;51.316;5.994;2024-03-02T14:29:17;16.90;97.40
49224;DHT22;35050;51.316;5.994;2024-03-02T14:31:43;16.80;96.10
49224;DHT22;35050;51.316;5.994;2024-03-02T14:34:09;16.50;96.60
49224;DHT22;35050;51.316;5.994;2024-03-02T14:36:35;16.40;97.10
49224;DHT22;35050;51.316;5.994;2024-03-02T14:39:03;16.30;97.00
49224;DHT22;35050;51.316;5.994;2024-03-02T14:41:29;16.40;96.90
49224;DHT22;35050;51.316;5.994;2024-03-02T14:43:55;16.40;97.20
49224;DHT22;35050;51.316;5.994;2024-03-02T14:46:20;16.00;97.20
49224;DHT22;35050;51.316;5.994;2024-03-02T14:48:46;16.10;97.10
49224;DHT22;35050;51.316;5.994;2024-03-02T14:51:14;16.10;97.90
49224;DHT22;35050;51.316;5.994;2024-03-02T14:53:40;16.00;97.90
49224;DHT22;35050;51.316;5.994;2024-03-02T14:56:06;15.90;97.90
49224;DHT22;35050;51.316;5.994;2024-03-02T14:58:31;16.00;98.00
49224;DHT22;35050;51.316;5.994;2024-03-02T15:00:57;16.30;97.60
49224;DHT22;35050;51.316;5.994;2024-03-02T15:03:23;16.00;98.20
49224;DHT22;35050;51.316;5.994;2024-03-02T15:05:49;15.70;98.10
49224;DHT22;35050;51.316;5.994;2024-03-02T15:08:17;16.00;98.20
49224;DHT22;35050;51.316;5.994;2024-03-02T15:10:42;16.30;97.90
49224;DHT22;35050;51.316;5.994;2024-03-02T15:13:08;16.40;98.10
49224;DHT22;35050;51.316;5.994;2024-03-02T15:15:34;15.90;98.40
49224;DHT22;35050;51.316;5.994;2024-03-02T15:17:59;15.70;98.80
49224;DHT22;35050;51.316;5.994;2024-03-02T15:20:25;15.70;98.60
49224;DHT22;35050;51.316;5.994;2024-03-02T15:22:51;15.50;98.70
49224;DHT22;35050;51.316;5.994;2024-03-02T15:25:16;15.20;99.20
49224;DHT22;35050;51.316;5.994;2024-03-02T15:27:43;15.20;99.10
49224;DHT22;35050;51.316;5.994;2024-03-02T15:30:08;15.20;99.40
49224;DHT22;35050;51.316;5.994;2024-03-02T15:32:34;15.00;99.40
49224;DHT22;35050;51.316;5.994;2024-03-02T15:35:02;15.00;99.90
49224;DHT22;35050;51.316;5.994;2024-03-02T15:37:28;15.00;99.90
49224;DHT22;35050;51.316;5.994;2024-03-02T15:39:54;15.00;99.90
49224;DHT22;35050;51.316;5.994;2024-03-02T15:42:19;14.80;99.90
49224;DHT22;35050;51.316;5.994;2024-03-02T15:44:49;14.80;99.90
49224;DHT22;35050;51.316;5.994;2024-03-02T15:47:15;14.70;99.90
49224;DHT22;35050;51.316;5.994;2024-03-02T15:49:40;14.70;99.90
49224;DHT22;35050;51.316;5.994;2024-03-02T15:52:06;14.60;99.90
49224;DHT22;35050;51.316;5.994;2024-03-02T15:54:32;14.70;99.90
49224;DHT22;35050;51.316;5.994;2024-03-02T15:56:57;14.90;99.90